Terminal Aerodrome Forecast
Issued by NWS Tuscon, AZ

Home | Current Version | Previous Version | Text Only | Print | Product List | Glossary On
Versions: 1 2 3 4 5 6 7 8 9 10 11 12 13 14 15 16 17 18 19 20 21 22
000
FTUS45 KTWC 041136
TAFDUG
TAF
KDUG 041136Z 0412/0512 17012KT P6SM -RA OVC100
     FM041330 09005KT P6SM SCT100 OVC200
     FM041900 29008KT P6SM SCT080 SCT150
     FM042200 26010KT P6SM VCTS SCT080CB BKN150
     FM050200 23006KT P6SM VCSH SCT090 BKN200
     FM050500 19006KT P6SM SCT090 BKN200=

USA.gov is the U.S. government's official web portal to all federal, state and local government web resources and services.